sensor_id;sensor_type;location;lat;lon;timestamp;P1;durP1;ratioP1;P2;durP2;ratioP2
12114;SDS011;6121;49.810;6.418;2023-03-14T00:02:07;101.63;;;13.50;;
12114;SDS011;6121;49.810;6.418;2023-03-14T00:04:33;107.93;;;14.23;;
12114;SDS011;6121;49.810;6.418;2023-03-14T00:06:58;97.30;;;12.90;;
12114;SDS011;6121;49.810;6.418;2023-03-14T00:09:25;65.90;;;9.25;;
12114;SDS011;6121;49.810;6.418;2023-03-14T00:11:52;113.50;;;14.88;;
12114;SDS011;6121;49.810;6.418;2023-03-14T00:14:19;77.50;;;10.63;;
12114;SDS011;6121;49.810;6.418;2023-03-14T00:16:47;91.47;;;12.13;;
12114;SDS011;6121;49.810;6.418;2023-03-14T00:19:14;69.27;;;9.70;;
12114;SDS011;6121;49.810;6.418;2023-03-14T00:21:39;106.75;;;14.05;;
12114;SDS011;6121;49.810;6.418;2023-03-14T00:24:06;66.55;;;9.30;;
12114;SDS011;6121;49.810;6.418;2023-03-14T00:26:33;95.03;;;12.68;;
12114;SDS011;6121;49.810;6.418;2023-03-14T00:28:58;80.83;;;10.90;;
12114;SDS011;6121;49.810;6.418;2023-03-14T00:31:25;85.70;;;11.63;;
12114;SDS011;6121;49.810;6.418;2023-03-14T00:33:51;90.13;;;12.07;;
12114;SDS011;6121;49.810;6.418;2023-03-14T00:36:18;81.82;;;11.00;;
12114;SDS011;6121;49.810;6.418;2023-03-14T00:38:47;97.90;;;12.77;;
12114;SDS011;6121;49.810;6.418;2023-03-14T00:41:15;92.28;;;12.30;;
12114;SDS011;6121;49.810;6.418;2023-03-14T00:43:48;86.88;;;11.52;;
12114;SDS011;6121;49.810;6.418;2023-03-14T00:46:14;88.73;;;11.83;;
12114;SDS011;6121;49.810;6.418;2023-03-14T00:48:43;99.07;;;13.02;;
12114;SDS011;6121;49.810;6.418;2023-03-14T00:51:10;78.50;;;10.55;;
12114;SDS011;6121;49.810;6.418;2023-03-14T00:53:39;117.35;;;15.07;;
12114;SDS011;6121;49.810;6.418;2023-03-14T00:56:06;85.67;;;11.50;;
12114;SDS011;6121;49.810;6.418;2023-03-14T00:58:34;100.15;;;13.18;;
12114;SDS011;6121;49.810;6.418;2023-03-14T01:01:10;94.22;;;12.38;;
12114;SDS011;6121;49.810;6.418;2023-03-14T01:03:44;103.38;;;13.52;;
12114;SDS011;6121;49.810;6.418;2023-03-14T01:06:18;83.13;;;11.07;;
12114;SDS011;6121;49.810;6.418;2023-03-14T01:08:46;102.40;;;13.45;;
12114;SDS011;6121;49.810;6.418;2023-03-14T01:11:17;69.88;;;9.63;;
12114;SDS011;6121;49.810;6.418;2023-03-14T01:13:45;109.20;;;14.17;;
12114;SDS011;6121;49.810;6.418;2023-03-14T01:16:12;90.40;;;11.95;;
12114;SDS011;6121;49.810;6.418;2023-03-14T01:18:39;125.37;;;16.10;;
12114;SDS011;6121;49.810;6.418;2023-03-14T01:21:13;78.63;;;10.60;;
12114;SDS011;6121;49.810;6.418;2023-03-14T01:23:44;83.50;;;11.15;;
12114;SDS011;6121;49.810;6.418;2023-03-14T01:26:12;58.88;;;8.27;;
12114;SDS011;6121;49.810;6.418;2023-03-14T01:28:40;75.93;;;10.23;;
12114;SDS011;6121;49.810;6.418;2023-03-14T01:31:08;78.05;;;10.55;;
12114;SDS011;6121;49.810;6.418;2023-03-14T01:33:36;73.07;;;9.98;;
12114;SDS011;6121;49.810;6.418;2023-03-14T01:36:03;70.55;;;9.77;;
12114;SDS011;6121;49.810;6.418;2023-03-14T01:38:31;65.00;;;9.07;;
12114;SDS011;6121;49.810;6.418;2023-03-14T01:40:59;84.03;;;11.25;;
12114;SDS011;6121;49.810;6.418;2023-03-14T01:43:26;67.35;;;9.38;;
12114;SDS011;6121;49.810;6.418;2023-03-14T01:51:11;74.28;;;10.05;;
12114;SDS011;6121;49.810;6.418;2023-03-14T01:53:43;79.60;;;10.77;;
12114;SDS011;6121;49.810;6.418;2023-03-14T01:56:10;72.38;;;9.85;;
12114;SDS011;6121;49.810;6.418;2023-03-14T01:58:40;81.03;;;10.93;;
12114;SDS011;6121;49.810;6.418;2023-03-14T02:01:08;74.25;;;10.20;;
12114;SDS011;6121;49.810;6.418;2023-03-14T02:03:36;78.75;;;10.68;;
12114;SDS011;6121;49.810;6.418;2023-03-14T02:06:10;72.47;;;10.02;;
12114;SDS011;6121;49.810;6.418;2023-03-14T02:08:40;74.32;;;10.13;;
12114;SDS011;6121;49.810;6.418;2023-03-14T02:11:13;64.30;;;8.93;;
12114;SDS011;6121;49.810;6.418;2023-03-14T02:13:48;80.55;;;10.82;;
12114;SDS011;6121;49.810;6.418;2023-03-14T02:16:31;69.43;;;9.45;;
12114;SDS011;6121;49.810;6.418;2023-03-14T02:19:11;83.53;;;11.20;;
12114;SDS011;6121;49.810;6.418;2023-03-14T02:22:16;86.13;;;11.52;;
12114;SDS011;6121;49.810;6.418;2023-03-14T02:27:23;78.03;;;10.60;;
12114;SDS011;6121;49.810;6.418;2023-03-14T02:29:51;77.28;;;10.43;;
12114;SDS011;6121;49.810;6.418;2023-03-14T02:32:34;88.95;;;11.68;;
12114;SDS011;6121;49.810;6.418;2023-03-14T02:35:08;126.05;;;16.10;;
12114;SDS011;6121;49.810;6.418;2023-03-14T02:37:41;125.75;;;16.08;;
12114;SDS011;6121;49.810;6.418;2023-03-14T02:40:13;83.97;;;11.20;;
12114;SDS011;6121;49.810;6.418;2023-03-14T02:42:40;105.97;;;13.70;;
12114;SDS011;6121;49.810;6.418;2023-03-14T02:47:34;116.38;;;15.00;;
12114;SDS011;6121;49.810;6.418;2023-03-14T02:50:08;93.30;;;12.43;;
12114;SDS011;6121;49.810;6.418;2023-03-14T02:52:37;100.85;;;13.30;;
12114;SDS011;6121;49.810;6.418;2023-03-14T02:55:03;125.00;;;15.88;;
12114;SDS011;6121;49.810;6.418;2023-03-14T02:57:31;107.95;;;13.95;;
12114;SDS011;6121;49.810;6.418;2023-03-14T02:59:58;90.63;;;11.90;;
12114;SDS011;6121;49.810;6.418;2023-03-14T03:02:26;103.88;;;13.55;;
12114;SDS011;6121;49.810;6.418;2023-03-14T03:04:52;108.38;;;13.93;;
12114;SDS011;6121;49.810;6.418;2023-03-14T03:07:19;94.60;;;12.50;;
12114;SDS011;6121;49.810;6.418;2023-03-14T03:09:46;96.53;;;12.75;;
12114;SDS011;6121;49.810;6.418;2023-03-14T03:12:12;137.23;;;17.42;;
12114;SDS011;6121;49.810;6.418;2023-03-14T03:14:38;90.20;;;11.97;;
12114;SDS011;6121;49.810;6.418;2023-03-14T03:17:05;115.82;;;14.88;;
12114;SDS011;6121;49.810;6.418;2023-03-14T03:19:31;85.75;;;11.40;;
12114;SDS011;6121;49.810;6.418;2023-03-14T03:21:58;110.93;;;14.43;;
12114;SDS011;6121;49.810;6.418;2023-03-14T03:24:24;74.22;;;10.15;;
12114;SDS011;6121;49.810;6.418;2023-03-14T03:26:51;103.47;;;13.43;;
12114;SDS011;6121;49.810;6.418;2023-03-14T03:29:18;94.30;;;12.32;;
12114;SDS011;6121;49.810;6.418;2023-03-14T03:31:44;93.22;;;12.32;;
12114;SDS011;6121;49.810;6.418;2023-03-14T03:34:12;95.88;;;12.55;;
12114;SDS011;6121;49.810;6.418;2023-03-14T03:36:38;99.65;;;13.13;;
12114;SDS011;6121;49.810;6.418;2023-03-14T03:39:05;99.93;;;13.02;;
12114;SDS011;6121;49.810;6.418;2023-03-14T03:41:31;104.18;;;13.55;;
12114;SDS011;6121;49.810;6.418;2023-03-14T03:43:57;123.28;;;15.80;;
12114;SDS011;6121;49.810;6.418;2023-03-14T03:46:24;86.70;;;11.53;;
12114;SDS011;6121;49.810;6.418;2023-03-14T03:48:54;91.32;;;12.18;;
12114;SDS011;6121;49.810;6.418;2023-03-14T03:51:21;103.73;;;13.50;;
12114;SDS011;6121;49.810;6.418;2023-03-14T03:53:47;101.22;;;13.23;;
12114;SDS011;6121;49.810;6.418;2023-03-14T03:56:18;98.00;;;13.00;;
12114;SDS011;6121;49.810;6.418;2023-03-14T03:58:44;106.70;;;13.98;;
12114;SDS011;6121;49.810;6.418;2023-03-14T04:01:10;117.63;;;15.00;;
12114;SDS011;6121;49.810;6.418;2023-03-14T04:03:37;85.75;;;11.35;;
12114;SDS011;6121;49.810;6.418;2023-03-14T04:06:09;105.00;;;13.57;;
12114;SDS011;6121;49.810;6.418;2023-03-14T04:08:39;94.03;;;12.38;;
12114;SDS011;6121;49.810;6.418;2023-03-14T04:11:15;108.72;;;14.05;;
12114;SDS011;6121;49.810;6.418;2023-03-14T04:13:52;102.22;;;13.20;;
12114;SDS011;6121;49.810;6.418;2023-03-14T04:16:22;112.18;;;14.40;;
12114;SDS011;6121;49.810;6.418;2023-03-14T04:18:53;82.68;;;11.07;;
12114;SDS011;6121;49.810;6.418;2023-03-14T04:21:21;107.70;;;13.90;;
12114;SDS011;6121;49.810;6.418;2023-03-14T04:23:52;114.87;;;14.73;;
12114;SDS011;6121;49.810;6.418;2023-03-14T04:26:18;101.55;;;13.30;;
12114;SDS011;6121;49.810;6.418;2023-03-14T04:28:44;111.53;;;14.30;;
12114;SDS011;6121;49.810;6.418;2023-03-14T04:31:11;115.30;;;14.70;;
12114;SDS011;6121;49.810;6.418;2023-03-14T04:33:39;97.32;;;12.82;;
12114;SDS011;6121;49.810;6.418;2023-03-14T04:36:06;105.28;;;13.68;;
12114;SDS011;6121;49.810;6.418;2023-03-14T04:38:34;98.88;;;12.93;;
12114;SDS011;6121;49.810;6.418;2023-03-14T04:41:00;114.00;;;14.70;;
12114;SDS011;6121;49.810;6.418;2023-03-14T04:43:30;90.33;;;12.03;;
12114;SDS011;6121;49.810;6.418;2023-03-14T04:46:05;114.47;;;14.70;;
12114;SDS011;6121;49.810;6.418;2023-03-14T04:48:32;68.93;;;9.47;;
12114;SDS011;6121;49.810;6.418;2023-03-14T04:50:58;91.47;;;11.93;;
12114;SDS011;6121;49.810;6.418;2023-03-14T04:53:28;89.00;;;11.77;;
12114;SDS011;6121;49.810;6.418;2023-03-14T04:55:55;97.47;;;12.83;;
12114;SDS011;6121;49.810;6.418;2023-03-14T04:58:24;104.32;;;13.57;;
12114;SDS011;6121;49.810;6.418;2023-03-14T05:00:51;97.95;;;12.85;;
12114;SDS011;6121;49.810;6.418;2023-03-14T05:03:35;88.15;;;11.63;;
12114;SDS011;6121;49.810;6.418;2023-03-14T05:06:17;105.97;;;13.60;;
12114;SDS011;6121;49.810;6.418;2023-03-14T05:09:01;100.57;;;13.30;;
12114;SDS011;6121;49.810;6.418;2023-03-14T05:11:45;102.25;;;13.30;;
12114;SDS011;6121;49.810;6.418;2023-03-14T05:14:32;75.73;;;10.23;;
12114;SDS011;6121;49.810;6.418;2023-03-14T05:17:18;92.85;;;12.20;;
12114;SDS011;6121;49.810;6.418;2023-03-14T05:20:04;107.23;;;13.90;;
12114;SDS011;6121;49.810;6.418;2023-03-14T05:22:52;92.00;;;12.10;;
12114;SDS011;6121;49.810;6.418;2023-03-14T05:25:30;91.65;;;12.00;;
12114;SDS011;6121;49.810;6.418;2023-03-14T05:28:18;93.00;;;12.23;;
12114;SDS011;6121;49.810;6.418;2023-03-14T05:30:54;85.35;;;11.35;;
12114;SDS011;6121;49.810;6.418;2023-03-14T05:33:29;93.50;;;12.15;;
12114;SDS011;6121;49.810;6.418;2023-03-14T05:36:11;119.10;;;15.20;;
12114;SDS011;6121;49.810;6.418;2023-03-14T05:38:56;80.83;;;10.73;;
12114;SDS011;6121;49.810;6.418;2023-03-14T05:41:41;96.40;;;12.93;;
12114;SDS011;6121;49.810;6.418;2023-03-14T05:44:24;92.85;;;12.38;;
12114;SDS011;6121;49.810;6.418;2023-03-14T05:47:12;112.72;;;14.70;;
12114;SDS011;6121;49.810;6.418;2023-03-14T05:49:41;78.80;;;10.80;;
12114;SDS011;6121;49.810;6.418;2023-03-14T05:52:12;106.05;;;14.10;;
12114;SDS011;6121;49.810;6.418;2023-03-14T05:54:51;90.20;;;12.18;;
12114;SDS011;6121;49.810;6.418;2023-03-14T05:57:28;99.40;;;13.15;;
12114;SDS011;6121;49.810;6.418;2023-03-14T06:00:18;78.15;;;10.73;;
12114;SDS011;6121;49.810;6.418;2023-03-14T06:02:54;85.17;;;11.53;;
12114;SDS011;6121;49.810;6.418;2023-03-14T06:05:26;82.53;;;11.18;;
12114;SDS011;6121;49.810;6.418;2023-03-14T06:07:58;97.32;;;12.98;;
12114;SDS011;6121;49.810;6.418;2023-03-14T06:10:26;91.00;;;12.23;;
12114;SDS011;6121;49.810;6.418;2023-03-14T06:12:52;88.00;;;11.80;;
12114;SDS011;6121;49.810;6.418;2023-03-14T06:15:19;81.70;;;11.07;;
12114;SDS011;6121;49.810;6.418;2023-03-14T06:17:48;94.63;;;12.65;;
12114;SDS011;6121;49.810;6.418;2023-03-14T06:20:16;88.57;;;11.95;;
12114;SDS011;6121;49.810;6.418;2023-03-14T06:22:42;82.75;;;11.32;;
12114;SDS011;6121;49.810;6.418;2023-03-14T06:25:10;127.93;;;16.55;;
12114;SDS011;6121;49.810;6.418;2023-03-14T06:27:35;105.40;;;13.95;;
12114;SDS011;6121;49.810;6.418;2023-03-14T06:30:01;78.70;;;10.80;;
12114;SDS011;6121;49.810;6.418;2023-03-14T06:32:30;109.13;;;14.38;;
12114;SDS011;6121;49.810;6.418;2023-03-14T06:35:00;89.03;;;11.95;;
12114;SDS011;6121;49.810;6.418;2023-03-14T06:37:28;88.32;;;11.95;;
12114;SDS011;6121;49.810;6.418;2023-03-14T06:39:55;76.60;;;10.45;;
12114;SDS011;6121;49.810;6.418;2023-03-14T06:42:41;84.75;;;11.52;;
12114;SDS011;6121;49.810;6.418;2023-03-14T06:45:07;100.97;;;13.43;;
12114;SDS011;6121;49.810;6.418;2023-03-14T06:47:34;88.25;;;11.93;;
12114;SDS011;6121;49.810;6.418;2023-03-14T06:50:00;80.13;;;10.88;;
12114;SDS011;6121;49.810;6.418;2023-03-14T06:52:29;98.93;;;13.20;;
12114;SDS011;6121;49.810;6.418;2023-03-14T06:54:55;210.77;;;26.40;;
12114;SDS011;6121;49.810;6.418;2023-03-14T06:57:22;232.90;;;29.00;;
12114;SDS011;6121;49.810;6.418;2023-03-14T06:59:48;109.50;;;14.45;;
12114;SDS011;6121;49.810;6.418;2023-03-14T07:02:14;130.75;;;16.98;;
12114;SDS011;6121;49.810;6.418;2023-03-14T07:04:42;108.75;;;14.35;;
12114;SDS011;6121;49.810;6.418;2023-03-14T07:07:09;101.78;;;13.45;;
12114;SDS011;6121;49.810;6.418;2023-03-14T07:09:35;120.05;;;15.73;;
12114;SDS011;6121;49.810;6.418;2023-03-14T07:12:01;136.02;;;17.70;;
12114;SDS011;6121;49.810;6.418;2023-03-14T07:14:29;103.43;;;13.70;;
12114;SDS011;6121;49.810;6.418;2023-03-14T07:16:55;99.97;;;13.27;;
12114;SDS011;6121;49.810;6.418;2023-03-14T07:19:21;101.38;;;13.50;;
12114;SDS011;6121;49.810;6.418;2023-03-14T07:21:47;88.97;;;12.03;;
12114;SDS011;6121;49.810;6.418;2023-03-14T07:24:16;144.32;;;18.58;;
12114;SDS011;6121;49.810;6.418;2023-03-14T07:26:42;131.05;;;17.02;;
12114;SDS011;6121;49.810;6.418;2023-03-14T07:29:09;128.02;;;16.63;;
12114;SDS011;6121;49.810;6.418;2023-03-14T07:31:36;161.52;;;20.75;;
12114;SDS011;6121;49.810;6.418;2023-03-14T07:34:02;149.43;;;19.23;;
12114;SDS011;6121;49.810;6.418;2023-03-14T07:36:33;132.17;;;17.07;;
12114;SDS011;6121;49.810;6.418;2023-03-14T07:38:58;134.90;;;17.43;;
12114;SDS011;6121;49.810;6.418;2023-03-14T07:41:54;179.95;;;22.95;;
12114;SDS011;6121;49.810;6.418;2023-03-14T07:44:39;150.27;;;19.40;;
12114;SDS011;6121;49.810;6.418;2023-03-14T07:47:04;152.47;;;19.53;;
12114;SDS011;6121;49.810;6.418;2023-03-14T07:49:32;153.83;;;19.83;;
12114;SDS011;6121;49.810;6.418;2023-03-14T07:51:57;166.93;;;21.42;;
12114;SDS011;6121;49.810;6.418;2023-03-14T07:54:24;151.10;;;19.30;;
12114;SDS011;6121;49.810;6.418;2023-03-14T07:56:50;136.77;;;17.67;;
12114;SDS011;6121;49.810;6.418;2023-03-14T07:59:17;136.70;;;17.73;;
12114;SDS011;6121;49.810;6.418;2023-03-14T08:01:43;134.13;;;17.52;;
12114;SDS011;6121;49.810;6.418;2023-03-14T08:04:09;143.55;;;18.67;;
12114;SDS011;6121;49.810;6.418;2023-03-14T08:06:36;154.00;;;19.98;;
12114;SDS011;6121;49.810;6.418;2023-03-14T08:09:02;134.93;;;17.55;;
12114;SDS011;6121;49.810;6.418;2023-03-14T08:11:28;160.25;;;20.65;;
12114;SDS011;6121;49.810;6.418;2023-03-14T08:13:54;181.10;;;22.90;;
12114;SDS011;6121;49.810;6.418;2023-03-14T08:16:21;164.15;;;21.00;;
12114;SDS011;6121;49.810;6.418;2023-03-14T08:18:47;133.07;;;17.42;;
12114;SDS011;6121;49.810;6.418;2023-03-14T08:21:13;155.27;;;19.90;;
12114;SDS011;6121;49.810;6.418;2023-03-14T08:23:39;214.90;;;27.08;;
12114;SDS011;6121;49.810;6.418;2023-03-14T08:26:05;134.90;;;17.75;;
12114;SDS011;6121;49.810;6.418;2023-03-14T08:28:31;134.60;;;17.42;;
12114;SDS011;6121;49.810;6.418;2023-03-14T08:30:58;112.20;;;15.00;;
12114;SDS011;6121;49.810;6.418;2023-03-14T08:33:27;218.95;;;27.75;;
12114;SDS011;6121;49.810;6.418;2023-03-14T08:35:54;121.18;;;16.02;;
12114;SDS011;6121;49.810;6.418;2023-03-14T08:38:20;144.23;;;18.67;;
12114;SDS011;6121;49.810;6.418;2023-03-14T08:40:46;136.05;;;17.77;;
12114;SDS011;6121;49.810;6.418;2023-03-14T08:43:12;184.13;;;23.47;;
12114;SDS011;6121;49.810;6.418;2023-03-14T08:45:38;124.30;;;16.43;;
12114;SDS011;6121;49.810;6.418;2023-03-14T08:48:04;145.83;;;18.83;;
12114;SDS011;6121;49.810;6.418;2023-03-14T08:50:30;146.05;;;18.92;;
12114;SDS011;6121;49.810;6.418;2023-03-14T08:52:59;164.30;;;21.10;;
12114;SDS011;6121;49.810;6.418;2023-03-14T08:55:26;156.13;;;20.02;;
12114;SDS011;6121;49.810;6.418;2023-03-14T08:57:55;131.07;;;17.10;;
12114;SDS011;6121;49.810;6.418;2023-03-14T09:00:21;137.90;;;17.83;;
12114;SDS011;6121;49.810;6.418;2023-03-14T09:02:47;177.45;;;22.70;;
12114;SDS011;6121;49.810;6.418;2023-03-14T09:05:13;154.77;;;19.77;;
12114;SDS011;6121;49.810;6.418;2023-03-14T09:07:39;152.23;;;19.67;;
12114;SDS011;6121;49.810;6.418;2023-03-14T09:10:06;141.25;;;18.33;;
12114;SDS011;6121;49.810;6.418;2023-03-14T09:12:34;170.80;;;21.90;;
12114;SDS011;6121;49.810;6.418;2023-03-14T09:15:00;148.53;;;19.33;;
12114;SDS011;6121;49.810;6.418;2023-03-14T09:17:26;141.30;;;18.43;;
12114;SDS011;6121;49.810;6.418;2023-03-14T09:19:52;165.77;;;21.30;;
12114;SDS011;6121;49.810;6.418;2023-03-14T09:22:18;162.70;;;21.00;;
12114;SDS011;6121;49.810;6.418;2023-03-14T09:24:43;125.97;;;16.77;;
12114;SDS011;6121;49.810;6.418;2023-03-14T09:27:09;156.30;;;20.23;;
12114;SDS011;6121;49.810;6.418;2023-03-14T09:29:35;136.70;;;17.87;;
12114;SDS011;6121;49.810;6.418;2023-03-14T09:32:07;160.30;;;20.57;;
12114;SDS011;6121;49.810;6.418;2023-03-14T09:34:33;150.70;;;19.35;;
12114;SDS011;6121;49.810;6.418;2023-03-14T09:36:59;136.70;;;17.85;;
12114;SDS011;6121;49.810;6.418;2023-03-14T09:39:25;147.57;;;19.10;;
12114;SDS011;6121;49.810;6.418;2023-03-14T09:41:51;168.83;;;21.83;;
12114;SDS011;6121;49.810;6.418;2023-03-14T09:44:21;139.82;;;18.38;;
12114;SDS011;6121;49.810;6.418;2023-03-14T09:46:53;147.95;;;19.38;;
12114;SDS011;6121;49.810;6.418;2023-03-14T09:49:30;147.20;;;19.25;;
12114;SDS011;6121;49.810;6.418;2023-03-14T09:52:05;129.95;;;17.35;;
12114;SDS011;6121;49.810;6.418;2023-03-14T09:54:53;149.30;;;19.60;;
12114;SDS011;6121;49.810;6.418;2023-03-14T09:57:50;159.35;;;20.75;;
12114;SDS011;6121;49.810;6.418;2023-03-14T10:00:24;146.18;;;19.17;;
12114;SDS011;6121;49.810;6.418;2023-03-14T10:05:23;174.88;;;22.20;;
12114;SDS011;6121;49.810;6.418;2023-03-14T10:07:50;218.80;;;27.67;;
12114;SDS011;6121;49.810;6.418;2023-03-14T10:10:20;151.52;;;19.42;;
12114;SDS011;6121;49.810;6.418;2023-03-14T10:12:54;146.35;;;18.65;;
12114;SDS011;6121;49.810;6.418;2023-03-14T10:15:31;163.43;;;20.77;;
12114;SDS011;6121;49.810;6.418;2023-03-14T10:17:59;140.18;;;18.05;;
12114;SDS011;6121;49.810;6.418;2023-03-14T10:23:02;182.70;;;22.98;;
12114;SDS011;6121;49.810;6.418;2023-03-14T10:25:31;141.45;;;18.00;;
12114;SDS011;6121;49.810;6.418;2023-03-14T10:27:59;135.43;;;17.35;;
12114;SDS011;6121;49.810;6.418;2023-03-14T10:30:44;156.70;;;19.92;;
12114;SDS011;6121;49.810;6.418;2023-03-14T10:33:12;204.70;;;25.55;;
12114;SDS011;6121;49.810;6.418;2023-03-14T10:35:47;160.65;;;20.30;;
12114;SDS011;6121;49.810;6.418;2023-03-14T10:38:27;145.73;;;18.58;;
12114;SDS011;6121;49.810;6.418;2023-03-14T10:40:57;149.33;;;19.23;;
12114;SDS011;6121;49.810;6.418;2023-03-14T10:43:31;221.35;;;27.83;;
12114;SDS011;6121;49.810;6.418;2023-03-14T10:46:08;150.25;;;19.77;;
12114;SDS011;6121;49.810;6.418;2023-03-14T10:48:57;145.73;;;19.00;;
12114;SDS011;6121;49.810;6.418;2023-03-14T10:51:28;167.10;;;21.45;;
12114;SDS011;6121;49.810;6.418;2023-03-14T10:53:56;229.30;;;28.70;;
12114;SDS011;6121;49.810;6.418;2023-03-14T10:56:27;151.10;;;19.35;;
12114;SDS011;6121;49.810;6.418;2023-03-14T10:58:59;151.50;;;19.27;;
12114;SDS011;6121;49.810;6.418;2023-03-14T11:30:29;151.13;;;19.53;;
12114;SDS011;6121;49.810;6.418;2023-03-14T11:35:48;147.23;;;18.95;;
12114;SDS011;6121;49.810;6.418;2023-03-14T11:41:18;162.77;;;21.10;;
12114;SDS011;6121;49.810;6.418;2023-03-14T11:43:48;253.38;;;32.03;;
12114;SDS011;6121;49.810;6.418;2023-03-14T11:51:52;176.30;;;22.40;;
12114;SDS011;6121;49.810;6.418;2023-03-14T11:54:33;164.10;;;20.88;;
12114;SDS011;6121;49.810;6.418;2023-03-14T11:57:04;165.27;;;21.13;;
12114;SDS011;6121;49.810;6.418;2023-03-14T12:14:15;310.10;;;41.15;;
12114;SDS011;6121;49.810;6.418;2023-03-14T12:16:45;168.88;;;22.90;;
12114;SDS011;6121;49.810;6.418;2023-03-14T12:21:48;184.30;;;25.58;;
12114;SDS011;6121;49.810;6.418;2023-03-14T12:24:21;226.23;;;31.23;;
12114;SDS011;6121;49.810;6.418;2023-03-14T12:26:53;218.63;;;30.52;;
12114;SDS011;6121;49.810;6.418;2023-03-14T12:29:24;189.77;;;25.40;;
12114;SDS011;6121;49.810;6.418;2023-03-14T12:34:26;206.40;;;26.30;;
12114;SDS011;6121;49.810;6.418;2023-03-14T12:37:42;212.03;;;26.57;;
12114;SDS011;6121;49.810;6.418;2023-03-14T12:39:50;227.63;;;28.08;;
12114;SDS011;6121;49.810;6.418;2023-03-14T12:45:30;169.63;;;21.15;;
12114;SDS011;6121;49.810;6.418;2023-03-14T12:50:34;177.48;;;22.23;;
12114;SDS011;6121;49.810;6.418;2023-03-14T12:53:15;203.07;;;25.07;;
12114;SDS011;6121;49.810;6.418;2023-03-14T13:04:42;171.32;;;21.35;;
12114;SDS011;6121;49.810;6.418;2023-03-14T13:07:33;204.35;;;25.08;;
12114;SDS011;6121;49.810;6.418;2023-03-14T13:10:02;145.40;;;18.27;;
12114;SDS011;6121;49.810;6.418;2023-03-14T13:13:19;188.82;;;23.35;;
12114;SDS011;6121;49.810;6.418;2023-03-14T13:15:32;175.95;;;21.95;;
12114;SDS011;6121;49.810;6.418;2023-03-14T13:18:15;161.38;;;20.10;;
12114;SDS011;6121;49.810;6.418;2023-03-14T13:23:40;262.45;;;31.67;;
12114;SDS011;6121;49.810;6.418;2023-03-14T13:26:18;188.88;;;23.23;;
12114;SDS011;6121;49.810;6.418;2023-03-14T13:28:44;128.00;;;16.25;;
12114;SDS011;6121;49.810;6.418;2023-03-14T13:31:19;139.20;;;17.48;;
12114;SDS011;6121;49.810;6.418;2023-03-14T13:34:24;235.88;;;28.80;;
12114;SDS011;6121;49.810;6.418;2023-03-14T13:36:42;177.15;;;21.90;;
12114;SDS011;6121;49.810;6.418;2023-03-14T13:39:18;166.30;;;20.73;;
12114;SDS011;6121;49.810;6.418;2023-03-14T13:41:47;166.55;;;20.77;;
12114;SDS011;6121;49.810;6.418;2023-03-14T13:44:15;209.98;;;25.55;;
12114;SDS011;6121;49.810;6.418;2023-03-14T13:46:45;172.85;;;21.30;;
12114;SDS011;6121;49.810;6.418;2023-03-14T13:49:16;175.52;;;21.83;;
12114;SDS011;6121;49.810;6.418;2023-03-14T13:51:49;162.07;;;20.27;;
12114;SDS011;6121;49.810;6.418;2023-03-14T13:54:17;204.20;;;25.15;;
12114;SDS011;6121;49.810;6.418;2023-03-14T13:56:45;172.30;;;21.25;;
12114;SDS011;6121;49.810;6.418;2023-03-14T13:59:24;147.70;;;18.52;;
12114;SDS011;6121;49.810;6.418;2023-03-14T14:01:52;130.70;;;16.47;;
12114;SDS011;6121;49.810;6.418;2023-03-14T14:04:20;171.67;;;21.47;;
12114;SDS011;6121;49.810;6.418;2023-03-14T14:06:55;141.60;;;17.92;;
12114;SDS011;6121;49.810;6.418;2023-03-14T14:09:45;159.57;;;20.05;;
12114;SDS011;6121;49.810;6.418;2023-03-14T14:12:37;167.20;;;20.88;;
12114;SDS011;6121;49.810;6.418;2023-03-14T14:15:10;150.90;;;18.80;;
12114;SDS011;6121;49.810;6.418;2023-03-14T14:23:01;140.23;;;17.67;;
12114;SDS011;6121;49.810;6.418;2023-03-14T14:25:28;351.83;;;42.25;;
12114;SDS011;6121;49.810;6.418;2023-03-14T14:27:55;180.70;;;22.35;;
12114;SDS011;6121;49.810;6.418;2023-03-14T14:32:50;135.15;;;17.05;;
12114;SDS011;6121;49.810;6.418;2023-03-14T14:35:24;184.65;;;22.77;;
12114;SDS011;6121;49.810;6.418;2023-03-14T14:37:52;206.20;;;25.38;;
12114;SDS011;6121;49.810;6.418;2023-03-14T14:40:22;174.02;;;21.85;;
12114;SDS011;6121;49.810;6.418;2023-03-14T14:42:52;143.38;;;18.10;;
12114;SDS011;6121;49.810;6.418;2023-03-14T14:45:24;186.95;;;22.98;;
12114;SDS011;6121;49.810;6.418;2023-03-14T14:47:54;206.38;;;25.30;;
12114;SDS011;6121;49.810;6.418;2023-03-14T14:50:27;181.43;;;22.48;;
12114;SDS011;6121;49.810;6.418;2023-03-14T14:52:57;152.02;;;18.98;;
12114;SDS011;6121;49.810;6.418;2023-03-14T14:55:32;142.93;;;18.58;;
12114;SDS011;6121;49.810;6.418;2023-03-14T14:58:11;139.10;;;18.15;;
12114;SDS011;6121;49.810;6.418;2023-03-14T15:01:31;139.93;;;18.15;;
12114;SDS011;6121;49.810;6.418;2023-03-14T15:03:42;187.30;;;23.98;;
12114;SDS011;6121;49.810;6.418;2023-03-14T15:06:10;121.68;;;15.88;;
12114;SDS011;6121;49.810;6.418;2023-03-14T15:08:38;134.48;;;17.27;;
12114;SDS011;6121;49.810;6.418;2023-03-14T15:11:04;128.23;;;16.52;;
12114;SDS011;6121;49.810;6.418;2023-03-14T15:13:30;178.27;;;22.67;;
12114;SDS011;6121;49.810;6.418;2023-03-14T15:15:56;126.90;;;16.40;;
12114;SDS011;6121;49.810;6.418;2023-03-14T15:18:23;159.63;;;20.08;;
12114;SDS011;6121;49.810;6.418;2023-03-14T15:20:50;109.65;;;14.23;;
12114;SDS011;6121;49.810;6.418;2023-03-14T15:23:17;175.45;;;21.85;;
12114;SDS011;6121;49.810;6.418;2023-03-14T15:25:44;137.15;;;17.42;;
12114;SDS011;6121;49.810;6.418;2023-03-14T15:28:16;161.05;;;20.17;;
12114;SDS011;6121;49.810;6.418;2023-03-14T15:30:46;122.28;;;15.45;;
12114;SDS011;6121;49.810;6.418;2023-03-14T15:33:13;180.88;;;22.45;;
12114;SDS011;6121;49.810;6.418;2023-03-14T15:35:39;121.53;;;15.35;;
12114;SDS011;6121;49.810;6.418;2023-03-14T15:38:13;158.50;;;19.67;;
12114;SDS011;6121;49.810;6.418;2023-03-14T15:40:41;129.93;;;16.38;;
12114;SDS011;6121;49.810;6.418;2023-03-14T15:43:08;156.93;;;19.57;;
12114;SDS011;6121;49.810;6.418;2023-03-14T15:45:34;156.60;;;19.52;;
12114;SDS011;6121;49.810;6.418;2023-03-14T15:48:00;181.27;;;22.50;;
12114;SDS011;6121;49.810;6.418;2023-03-14T15:50:26;151.30;;;18.95;;
12114;SDS011;6121;49.810;6.418;2023-03-14T15:52:52;133.65;;;16.77;;
12114;SDS011;6121;49.810;6.418;2023-03-14T15:55:18;163.43;;;20.27;;
12114;SDS011;6121;49.810;6.418;2023-03-14T15:57:45;181.00;;;22.47;;
12114;SDS011;6121;49.810;6.418;2023-03-14T16:00:12;130.05;;;16.50;;
12114;SDS011;6121;49.810;6.418;2023-03-14T16:02:39;166.80;;;20.67;;
12114;SDS011;6121;49.810;6.418;2023-03-14T16:05:09;160.45;;;19.95;;
12114;SDS011;6121;49.810;6.418;2023-03-14T16:07:36;155.67;;;19.33;;
12114;SDS011;6121;49.810;6.418;2023-03-14T16:10:02;133.38;;;16.83;;
12114;SDS011;6121;49.810;6.418;2023-03-14T16:12:28;187.68;;;23.08;;
12114;SDS011;6121;49.810;6.418;2023-03-14T16:14:54;125.47;;;15.85;;
12114;SDS011;6121;49.810;6.418;2023-03-14T16:17:20;166.77;;;20.83;;
12114;SDS011;6121;49.810;6.418;2023-03-14T16:19:46;81.55;;;10.70;;
12114;SDS011;6121;49.810;6.418;2023-03-14T16:22:12;84.47;;;10.98;;
12114;SDS011;6121;49.810;6.418;2023-03-14T16:24:38;74.77;;;9.80;;
12114;SDS011;6121;49.810;6.418;2023-03-14T16:27:04;74.07;;;9.77;;